Open Full Screen Window  High Contrast Mode
Wind Gusting 14 knots
09
October 25, 2014 3:41 PM EDT
Weather Information
Wind Direction
  280 °
Wind Speed
  09 kt (10 mph)
Wind Gust
  14 kt (16 mph)
Altimeter
29.91 in
Visibility
10 SM
Temperature
22° C
72° F
Dewpoint
13° C
55° F
Humidity
57%
1hr Rain Fall
00.00 in.
24hr Rain Fall
00.00 in.
Sky Condition
Clear
VFR

METAR KI69 251941Z AUTO 28009G14KT 10SM CLR 22/13 A2991 RMK AO1

*Background is not an actual portrayal of the airport.